createdAt,value
2018-04-28T00:00:06.939Z,62.11
2018-04-28T00:01:06.915Z,61.91
2018-04-28T00:02:06.897Z,61.91
2018-04-28T00:03:06.881Z,62.40
2018-04-28T00:04:06.879Z,62.30
2018-04-28T00:05:06.867Z,62.77
2018-04-28T00:06:06.837Z,62.77
2018-04-28T00:07:06.847Z,63.16
2018-04-28T00:08:06.807Z,63.26
2018-04-28T00:09:06.799Z,63.64
2018-04-28T00:10:06.781Z,63.83
2018-04-28T00:11:06.771Z,63.73
2018-04-28T00:12:06.762Z,64.02
2018-04-28T00:13:06.763Z,63.93
2018-04-28T00:14:06.728Z,63.83
2018-04-28T00:15:06.736Z,64.02
2018-04-28T00:16:06.720Z,64.22
2018-04-28T00:17:06.687Z,64.22
2018-04-28T00:18:06.673Z,64.40
2018-04-28T00:19:06.656Z,64.22
2018-04-28T00:20:06.651Z,64.22
2018-04-28T00:21:06.666Z,64.12
2018-04-28T00:22:06.617Z,64.59
2018-04-28T00:23:06.621Z,65.08
2018-04-28T00:24:06.589Z,64.88
2018-04-28T00:25:06.574Z,64.88
2018-04-28T00:26:06.560Z,65.08
2018-04-28T00:27:06.543Z,64.88
2018-04-28T00:28:06.552Z,65.08
2018-04-28T00:29:06.534Z,65.36
2018-04-28T00:30:06.505Z,65.45
2018-04-28T00:31:06.490Z,65.74
2018-04-28T00:32:06.479Z,66.09
2018-04-28T00:33:06.476Z,66.09
2018-04-28T00:34:06.463Z,66.09
2018-04-28T00:35:06.439Z,66.28
2018-04-28T00:36:06.423Z,66.38
2018-04-28T00:37:06.405Z,66.76
2018-04-28T00:38:06.420Z,66.67
2018-04-28T00:39:06.399Z,66.76
2018-04-28T00:40:06.398Z,67.72
2018-04-28T00:41:06.358Z,68.20
2018-04-28T00:42:06.339Z,68.20
2018-04-28T00:43:06.326Z,68.20
2018-04-28T00:44:06.322Z,68.49
2018-04-28T00:45:06.324Z,69.41
2018-04-28T00:46:06.284Z,69.50
2018-04-28T00:47:06.267Z,69.50
2018-04-28T00:48:06.254Z,69.89
2018-04-28T00:49:06.237Z,69.89
2018-04-28T00:50:06.255Z,69.89
2018-04-28T00:51:06.215Z,69.21
2018-04-28T00:52:06.207Z,69.79
2018-04-28T00:53:06.183Z,70.07
2018-04-28T00:54:06.177Z,69.89
2018-04-28T00:55:06.173Z,69.60
2018-04-28T00:56:06.156Z,70.07
2018-04-28T00:57:06.130Z,69.60
2018-04-28T00:58:06.119Z,69.70
2018-04-28T00:59:06.103Z,70.27
2018-04-28T01:00:06.084Z,70.27
2018-04-28T01:01:06.087Z,69.79
2018-04-28T01:02:06.059Z,69.79
2018-04-28T01:03:06.037Z,70.36
2018-04-28T01:04:06.027Z,70.65
2018-04-28T01:05:06.011Z,70.65
2018-04-28T01:06:06.019Z,71.42
2018-04-28T01:07:05.986Z,70.75
2018-04-28T01:08:05.970Z,70.94
2018-04-28T01:09:05.963Z,71.32
2018-04-28T01:10:05.943Z,71.13
2018-04-28T01:11:05.925Z,71.51
2018-04-28T01:12:05.931Z,71.61
2018-04-28T01:13:05.902Z,72.18
2018-04-28T01:14:05.889Z,71.80
2018-04-28T01:15:05.864Z,72.43
2018-04-28T01:16:05.864Z,72.05
2018-04-28T01:17:05.862Z,72.75
2018-04-28T01:18:05.834Z,72.75
2018-04-28T01:19:05.817Z,71.76
2018-04-28T01:20:05.797Z,72.47
2018-04-28T01:21:05.794Z,72.14
2018-04-28T01:22:05.775Z,71.95
2018-04-28T01:23:05.777Z,72.66
2018-04-28T01:24:05.754Z,72.24
2018-04-28T01:25:05.726Z,72.08
2018-04-28T01:26:05.716Z,72.66
2018-04-28T01:27:05.703Z,72.66
2018-04-28T01:28:05.709Z,72.72
2018-04-28T01:29:05.691Z,72.66
2018-04-28T01:30:05.664Z,72.33
2018-04-28T01:31:05.648Z,73.58
2018-04-28T01:32:05.628Z,73.10
2018-04-28T01:33:05.614Z,73.96
2018-04-28T01:34:05.604Z,74.24
2018-04-28T01:35:05.604Z,74.53
2018-04-28T01:36:05.575Z,74.91
2018-04-28T01:37:05.560Z,75.59
2018-04-28T01:38:05.540Z,75.96
2018-04-28T01:39:05.540Z,76.06
2018-04-28T01:40:05.533Z,76.31
2018-04-28T01:41:05.505Z,76.98
2018-04-28T01:42:05.497Z,77.17
2018-04-28T01:43:05.472Z,77.65
2018-04-28T01:44:05.456Z,76.31
2018-04-28T01:45:05.459Z,76.21
2018-04-28T01:46:05.451Z,76.12
2018-04-28T01:47:05.422Z,76.31
2018-04-28T01:48:05.429Z,76.31
2018-04-28T01:49:05.405Z,75.45
2018-04-28T01:50:05.381Z,75.26
2018-04-28T01:51:05.381Z,74.02
2018-04-28T01:52:05.357Z,73.73
2018-04-28T01:53:05.330Z,73.25
2018-04-28T01:54:05.323Z,72.49
2018-04-28T01:55:05.310Z,72.43
2018-04-28T01:56:05.311Z,72.68
2018-04-28T01:57:05.293Z,72.14
2018-04-28T01:58:05.259Z,71.57
2018-04-28T01:59:05.249Z,70.90
2018-04-28T02:00:05.230Z,70.71
2018-04-28T02:01:05.236Z,70.71
2018-04-28T02:02:05.227Z,70.81
2018-04-28T02:03:05.213Z,70.61
2018-04-28T02:04:05.184Z,70.52
2018-04-28T02:05:05.180Z,70.42
2018-04-28T02:06:05.152Z,70.90
2018-04-28T02:07:05.154Z,70.61
2018-04-28T02:08:05.132Z,70.81
2018-04-28T02:09:05.107Z,70.33
2018-04-28T02:10:05.088Z,70.23
2018-04-28T02:11:05.077Z,70.61
2018-04-28T02:12:05.086Z,70.23
2018-04-28T02:13:05.058Z,70.42
2018-04-28T02:14:05.034Z,70.23
2018-04-28T02:15:05.017Z,70.04
2018-04-28T02:16:05.000Z,70.81
2018-04-28T02:17:05.003Z,70.42
2018-04-28T02:18:04.985Z,70.77
2018-04-28T02:19:04.962Z,70.61
2018-04-28T02:20:04.944Z,70.67
2018-04-28T02:21:04.929Z,70.39
2018-04-28T02:22:04.919Z,70.39
2018-04-28T02:23:04.919Z,71.47
2018-04-28T02:24:04.885Z,71.92
2018-04-28T02:25:04.870Z,71.44
2018-04-28T02:26:04.853Z,71.82
2018-04-28T02:27:04.846Z,72.20
2018-04-28T02:28:04.825Z,72.01
2018-04-28T02:29:04.833Z,72.68
2018-04-28T02:30:04.817Z,72.20
2018-04-28T02:31:04.804Z,72.78
2018-04-28T02:32:04.773Z,72.58
2018-04-28T02:33:04.757Z,72.68
2018-04-28T02:34:04.767Z,72.58
2018-04-28T02:35:04.725Z,72.68
2018-04-28T02:36:04.708Z,72.87
2018-04-28T02:37:04.700Z,72.39
2018-04-28T02:38:04.680Z,72.39
2018-04-28T02:39:04.687Z,72.87
2018-04-28T02:40:04.670Z,72.78
2018-04-28T02:41:04.639Z,72.78
2018-04-28T02:42:04.626Z,73.44
2018-04-28T02:43:04.608Z,73.44
2018-04-28T02:44:04.594Z,73.44
2018-04-28T02:45:04.596Z,73.83
2018-04-28T02:46:04.568Z,73.73
2018-04-28T02:47:04.567Z,73.92
2018-04-28T02:48:04.534Z,73.83
2018-04-28T02:49:04.525Z,74.02
2018-04-28T02:50:04.528Z,74.30
2018-04-28T02:51:04.516Z,74.21
2018-04-28T02:52:04.478Z,74.59
2018-04-28T02:53:04.465Z,74.88
2018-04-28T02:54:04.446Z,74.88
2018-04-28T02:55:04.446Z,74.69
2018-04-28T02:56:04.423Z,74.30
2018-04-28T02:57:04.428Z,75.16
2018-04-28T02:58:04.390Z,75.16
2018-04-28T02:59:04.378Z,75.07
2018-04-28T03:00:04.374Z,75.16
2018-04-28T03:01:04.354Z,74.98
2018-04-28T03:02:04.330Z,74.59
2018-04-28T03:03:04.339Z,74.98
2018-04-28T03:04:04.303Z,74.59
2018-04-28T03:05:04.295Z,74.78
2018-04-28T03:06:04.285Z,75.16
2018-04-28T03:07:04.264Z,74.69
2018-04-28T03:08:04.263Z,74.78
2018-04-28T03:09:04.232Z,75.35
2018-04-28T03:10:04.213Z,75.07
2018-04-28T03:11:04.214Z,75.26
2018-04-28T03:12:04.193Z,74.40
2018-04-28T03:13:04.187Z,73.83
2018-04-28T03:14:04.156Z,73.92
2018-04-28T03:15:04.144Z,73.83
2018-04-28T03:16:04.145Z,73.73
2018-04-28T03:17:04.113Z,73.92
2018-04-28T03:18:04.132Z,73.83
2018-04-28T03:19:04.095Z,73.63
2018-04-28T03:20:04.068Z,74.21
2018-04-28T03:21:04.074Z,74.21
2018-04-28T03:22:04.050Z,74.69
2018-04-28T03:23:04.031Z,74.69
2018-04-28T03:24:04.013Z,74.02
2018-04-28T03:25:03.998Z,74.30
2018-04-28T03:26:04.007Z,74.69
2018-04-28T03:27:03.967Z,74.21
2018-04-28T03:28:03.964Z,74.69
2018-04-28T03:29:03.944Z,74.78
2018-04-28T03:30:03.934Z,74.69
2018-04-28T03:31:03.920Z,74.30
2018-04-28T03:32:03.909Z,74.78
2018-04-28T03:33:03.876Z,74.49
2018-04-28T03:34:03.863Z,74.69
2018-04-28T03:35:03.847Z,74.30
2018-04-28T03:36:03.848Z,74.11
2018-04-28T03:37:03.820Z,74.21
2018-04-28T03:38:03.803Z,74.40
2018-04-28T03:39:03.800Z,73.73
2018-04-28T03:40:03.782Z,74.02
2018-04-28T03:41:03.757Z,73.83
2018-04-28T03:42:03.746Z,73.83
2018-04-28T03:43:03.730Z,73.92
2018-04-28T03:44:03.749Z,73.54
2018-04-28T03:45:03.700Z,73.35
2018-04-28T03:46:03.676Z,73.25
2018-04-28T03:47:03.672Z,73.16
2018-04-28T03:48:03.647Z,73.35
2018-04-28T03:49:03.639Z,73.35
2018-04-28T03:50:03.644Z,73.35
2018-04-28T03:51:03.608Z,73.35
2018-04-28T03:52:03.599Z,73.25
2018-04-28T03:53:03.572Z,73.83
2018-04-28T03:54:03.576Z,74.02
2018-04-28T03:55:03.564Z,73.44
2018-04-28T03:56:03.532Z,73.44
2018-04-28T03:57:03.523Z,73.35
2018-04-28T03:58:03.504Z,73.44
2018-04-28T03:59:03.489Z,72.87
2018-04-28T04:00:03.499Z,72.78
2018-04-28T04:01:03.459Z,72.58
2018-04-28T04:02:03.447Z,72.68
2018-04-28T04:03:03.424Z,72.11
2018-04-28T04:04:03.412Z,72.49
2018-04-28T04:05:03.394Z,73.07
2018-04-28T04:06:03.396Z,72.97
2018-04-28T04:07:03.364Z,72.49
2018-04-28T04:08:03.365Z,72.68
2018-04-28T04:09:03.344Z,71.82
2018-04-28T04:10:03.323Z,72.58
2018-04-28T04:11:03.326Z,72.39
2018-04-28T04:12:03.296Z,72.20
2018-04-28T04:13:03.276Z,71.72
2018-04-28T04:14:03.264Z,72.20
2018-04-28T04:15:03.248Z,72.20
2018-04-28T04:16:03.234Z,72.49
2018-04-28T04:17:03.236Z,71.72
2018-04-28T04:18:03.215Z,71.92
2018-04-28T04:19:03.188Z,72.01
2018-04-28T04:20:03.176Z,71.82
2018-04-28T04:21:03.160Z,71.92
2018-04-28T04:22:03.140Z,72.30
2018-04-28T04:23:03.150Z,71.72
2018-04-28T04:24:03.114Z,72.11
2018-04-28T04:25:03.100Z,72.20
2018-04-28T04:26:03.100Z,72.11
2018-04-28T04:27:03.082Z,72.20
2018-04-28T04:28:03.078Z,72.30
2018-04-28T04:29:03.037Z,71.82
2018-04-28T04:30:03.019Z,71.92
2018-04-28T04:31:03.008Z,72.01
2018-04-28T04:32:03.009Z,72.20
2018-04-28T04:33:02.976Z,71.72
2018-04-28T04:34:02.976Z,71.92
2018-04-28T04:35:02.947Z,71.72
2018-04-28T04:36:02.928Z,71.63
2018-04-28T04:37:02.931Z,71.53
2018-04-28T04:38:02.903Z,70.67
2018-04-28T04:39:02.887Z,70.67
2018-04-28T04:40:02.869Z,70.67
2018-04-28T04:41:02.868Z,70.58
2018-04-28T04:42:02.863Z,70.77
2018-04-28T04:43:02.845Z,70.20
2018-04-28T04:44:02.811Z,70.20
2018-04-28T04:45:02.792Z,70.01
2018-04-28T04:46:02.781Z,70.77
2018-04-28T04:47:02.770Z,70.96
2018-04-28T04:48:02.752Z,70.67
2018-04-28T04:49:02.746Z,70.58
2018-04-28T04:50:02.733Z,70.96
2018-04-28T04:51:02.701Z,70.39
2018-04-28T04:52:02.689Z,70.77
2018-04-28T04:53:02.681Z,70.77
2018-04-28T04:54:02.674Z,70.48
2018-04-28T04:55:02.641Z,70.48
2018-04-28T04:56:02.629Z,70.48
2018-04-28T04:57:02.612Z,70.39
2018-04-28T04:58:02.600Z,70.20
2018-04-28T04:59:02.595Z,70.39
2018-04-28T05:00:02.584Z,70.48
2018-04-28T05:01:02.575Z,70.29
2018-04-28T05:02:02.537Z,70.58
2018-04-28T05:03:02.520Z,70.87
2018-04-28T05:04:02.521Z,70.96
2018-04-28T05:05:02.494Z,70.67
2018-04-28T05:06:02.477Z,70.58
2018-04-28T05:07:02.480Z,70.39
2018-04-28T05:08:02.446Z,70.77
2018-04-28T05:09:02.436Z,70.77
2018-04-28T05:10:02.415Z,70.48
2018-04-28T05:11:02.407Z,70.39
2018-04-28T05:12:02.385Z,70.20
2018-04-28T05:13:02.385Z,70.71
2018-04-28T05:14:02.366Z,70.87
2018-04-28T05:15:02.362Z,70.87
2018-04-28T05:16:02.357Z,70.77
2018-04-28T05:17:23.333Z,70.23
2018-04-28T05:18:02.299Z,70.33
2018-04-28T05:19:02.323Z,70.42
2018-04-28T05:20:02.269Z,69.66
2018-04-28T05:21:02.270Z,69.76
2018-04-28T05:22:02.237Z,69.56
2018-04-28T05:23:02.241Z,69.66
2018-04-28T05:24:02.210Z,69.85
2018-04-28T05:25:02.192Z,69.76
2018-04-28T05:26:02.177Z,70.04
2018-04-28T05:27:02.168Z,70.04
2018-04-28T05:28:02.184Z,70.04
2018-04-28T05:29:02.131Z,70.90
2018-04-28T05:30:02.118Z,70.42
2018-04-28T05:31:02.109Z,70.33
2018-04-28T05:32:02.090Z,70.90
2018-04-28T05:33:02.091Z,70.23
2018-04-28T05:34:02.063Z,70.61
2018-04-28T05:35:02.042Z,70.61
2018-04-28T05:36:02.106Z,70.52
2018-04-28T05:37:02.028Z,70.33
2018-04-28T05:38:02.010Z,70.33
2018-04-28T05:39:01.985Z,70.61
2018-04-28T05:40:06.104Z,70.52
2018-04-28T05:41:02.615Z,70.81
2018-04-28T05:42:01.944Z,70.23
2018-04-28T05:43:01.940Z,70.04
2018-04-28T05:44:02.027Z,70.52
2018-04-28T05:45:03.090Z,70.23
2018-04-28T05:46:01.887Z,70.04
2018-04-28T05:47:01.865Z,70.23
2018-04-28T05:48:01.847Z,70.61
2018-04-28T05:49:01.854Z,70.33
2018-04-28T05:50:01.832Z,70.14
2018-04-28T05:51:01.809Z,70.33
2018-04-28T05:52:01.804Z,70.90
2018-04-28T05:53:01.779Z,70.71
2018-04-28T05:54:01.761Z,70.90
2018-04-28T05:55:01.758Z,70.90
2018-04-28T05:56:01.735Z,70.81
2018-04-28T05:57:01.719Z,70.14
2018-04-28T05:58:01.720Z,69.60
2018-04-28T05:59:01.706Z,70.52
2018-04-28T06:00:01.695Z,69.85
2018-04-28T06:01:01.656Z,69.95
2018-04-28T06:02:01.646Z,70.81
2018-04-28T06:03:01.627Z,70.52
2018-04-28T06:04:01.619Z,70.36
2018-04-28T06:05:01.609Z,70.14
2018-04-28T06:06:01.602Z,69.85
2018-04-28T06:07:02.168Z,69.70
2018-04-28T06:08:01.560Z,70.04
2018-04-28T06:09:01.544Z,69.70
2018-04-28T06:10:01.527Z,70.04
2018-04-28T06:11:01.534Z,70.04
2018-04-28T06:12:01.502Z,69.50
2018-04-28T06:13:01.499Z,69.50
2018-04-28T06:14:01.537Z,69.89
2018-04-28T06:15:01.457Z,69.50
2018-04-28T06:16:01.444Z,70.07
2018-04-28T06:17:22.438Z,70.27
2018-04-28T06:18:01.408Z,70.07
2018-04-28T06:19:01.417Z,70.17
2018-04-28T06:20:01.475Z,70.07
2018-04-28T06:21:01.369Z,70.07
2018-04-28T06:22:01.372Z,69.79
2018-04-28T06:23:01.340Z,69.89
2018-04-28T06:24:01.330Z,69.89
2018-04-28T06:25:01.311Z,69.98
2018-04-28T06:26:01.366Z,70.17
2018-04-28T06:27:01.275Z,70.27
2018-04-28T06:28:01.285Z,69.60
2018-04-28T06:29:01.255Z,70.07
2018-04-28T06:30:01.246Z,69.98
2018-04-28T06:31:01.223Z,70.07
2018-04-28T06:32:01.209Z,70.07
2018-04-28T06:33:01.212Z,69.98
2018-04-28T06:34:01.186Z,69.89
2018-04-28T06:35:01.183Z,69.89
2018-04-28T06:36:01.160Z,69.89
2018-04-28T06:37:01.133Z,69.79
2018-04-28T06:38:01.137Z,69.70
2018-04-28T06:39:01.147Z,70.27
2018-04-28T06:40:01.093Z,69.79
2018-04-28T06:41:01.083Z,70.17
2018-04-28T06:42:01.059Z,69.89
2018-04-28T06:43:01.051Z,69.98
2018-04-28T06:44:01.034Z,69.60
2018-04-28T06:45:01.029Z,70.46
2018-04-28T06:46:01.023Z,70.75
2018-04-28T06:47:00.995Z,71.03
2018-04-28T06:48:00.977Z,70.65
2018-04-28T06:49:00.958Z,70.75
2018-04-28T06:50:00.964Z,70.94
2018-04-28T06:51:00.990Z,69.79
2018-04-28T06:52:00.929Z,69.70
2018-04-28T06:53:00.903Z,70.27
2018-04-28T06:54:00.905Z,69.79
2018-04-28T06:55:00.891Z,70.27
2018-04-28T06:56:00.865Z,69.60
2018-04-28T06:57:00.846Z,69.60
2018-04-28T06:58:00.844Z,69.50
2018-04-28T06:59:00.835Z,69.50
2018-04-28T07:00:00.815Z,69.31
2018-04-28T07:01:00.791Z,70.17
2018-04-28T07:02:00.775Z,69.79
2018-04-28T07:03:00.760Z,69.50
2018-04-28T07:04:00.744Z,69.92
2018-04-28T07:05:00.734Z,69.64
2018-04-28T07:06:00.735Z,69.64
2018-04-28T07:07:00.705Z,69.44
2018-04-28T07:08:00.683Z,68.58
2018-04-28T07:09:00.672Z,68.20
2018-04-28T07:10:00.666Z,69.15
2018-04-28T07:11:00.666Z,68.20
2018-04-28T07:12:00.641Z,68.01
2018-04-28T07:13:00.612Z,67.72
2018-04-28T07:14:00.599Z,67.63
2018-04-28T07:15:00.600Z,67.72
2018-04-28T07:16:00.592Z,68.01
2018-04-28T07:17:00.564Z,69.19
2018-04-28T07:18:00.546Z,68.42
2018-04-28T07:19:00.529Z,67.85
2018-04-28T07:20:00.536Z,67.18
2018-04-28T07:21:00.583Z,66.32
2018-04-28T07:22:00.522Z,66.41
2018-04-28T07:23:00.478Z,66.80
2018-04-28T07:24:00.463Z,66.13
2018-04-28T07:25:00.456Z,66.51
2018-04-28T07:26:00.468Z,66.41
2018-04-28T07:27:00.419Z,66.80
2018-04-28T07:28:00.408Z,66.41
2018-04-28T07:29:00.411Z,66.22
2018-04-28T07:30:00.380Z,66.70
2018-04-28T07:31:00.377Z,66.80
2018-04-28T07:32:00.348Z,67.31
2018-04-28T07:33:00.337Z,65.30
2018-04-28T07:34:00.321Z,65.97
2018-04-28T07:35:00.328Z,66.16
2018-04-28T07:36:00.299Z,65.97
2018-04-28T07:37:00.282Z,65.97
2018-04-28T07:38:00.292Z,65.88
2018-04-28T07:39:00.257Z,65.78
2018-04-28T07:40:00.263Z,66.35
2018-04-28T07:41:00.238Z,66.64
2018-04-28T07:42:00.217Z,66.74
2018-04-28T07:43:00.202Z,67.41
2018-04-28T07:44:00.189Z,66.25
2018-04-28T07:45:00.190Z,66.45
2018-04-28T07:46:00.163Z,66.64
2018-04-28T07:47:00.156Z,65.30
2018-04-28T07:48:00.136Z,65.58
2018-04-28T07:49:00.134Z,66.25
2018-04-28T07:50:00.133Z,66.16
2018-04-28T07:51:00.124Z,66.22
2018-04-28T07:52:00.083Z,66.64
2018-04-28T07:53:00.068Z,66.45
2018-04-28T07:54:00.719Z,66.45
2018-04-28T07:55:00.045Z,66.35
2018-04-28T07:56:00.031Z,66.25
2018-04-28T07:57:00.040Z,66.45
2018-04-28T07:58:00.005Z,66.35
2018-04-28T07:58:59.993Z,66.35
2018-04-28T07:59:59.977Z,66.25
2018-04-28T08:00:59.960Z,66.35
2018-04-28T08:01:59.968Z,66.03
2018-04-28T08:02:59.955Z,66.70
2018-04-28T08:03:59.925Z,66.22
2018-04-28T08:04:59.910Z,66.22
2018-04-28T08:05:59.896Z,66.64
2018-04-28T08:06:59.964Z,66.16
2018-04-28T08:07:59.888Z,66.35
2018-04-28T08:08:59.857Z,66.45
2018-04-28T08:09:59.838Z,66.74
2018-04-28T08:10:59.834Z,65.68
2018-04-28T08:11:59.821Z,65.58
2018-04-28T08:12:59.829Z,64.92
2018-04-28T08:13:59.808Z,64.43
2018-04-28T08:14:59.778Z,65.33
2018-04-28T08:15:59.767Z,64.18
2018-04-28T08:16:59.753Z,64.18
2018-04-28T08:17:59.762Z,64.18
2018-04-28T08:18:59.739Z,64.37
2018-04-28T08:19:59.709Z,64.22
2018-04-28T08:20:59.719Z,64.40
2018-04-28T08:21:59.688Z,64.43
2018-04-28T08:22:59.684Z,63.29
2018-04-28T08:23:59.677Z,63.38
2018-04-28T08:24:59.676Z,63.64
2018-04-28T08:25:59.637Z,64.31
2018-04-28T08:26:59.626Z,64.40
2018-04-28T08:27:59.619Z,64.40
2018-04-28T08:28:59.612Z,64.50
2018-04-28T08:29:59.606Z,63.83
2018-04-28T08:30:59.568Z,63.83
2018-04-28T08:31:59.573Z,64.12
2018-04-28T08:32:59.546Z,64.22
2018-04-28T08:33:59.536Z,63.26
2018-04-28T08:34:59.545Z,61.82
2018-04-28T08:35:59.529Z,62.96
2018-04-28T08:36:59.519Z,62.90
2018-04-28T08:37:59.485Z,62.23
2018-04-28T08:38:59.470Z,62.01
2018-04-28T08:39:59.456Z,62.39
2018-04-28T08:40:59.456Z,62.77
2018-04-28T08:41:59.436Z,63.26
2018-04-28T08:42:59.422Z,63.16
2018-04-28T08:43:59.410Z,63.16
2018-04-28T08:44:59.399Z,63.45
2018-04-28T08:45:59.408Z,63.83
2018-04-28T08:46:59.371Z,63.16
2018-04-28T08:47:59.373Z,63.96
2018-04-28T08:48:59.354Z,62.23
2018-04-28T08:49:59.327Z,61.11
2018-04-28T08:50:59.334Z,61.98
2018-04-28T08:51:59.322Z,61.14
2018-04-28T08:52:59.302Z,60.08
2018-04-28T08:53:59.289Z,59.51
2018-04-28T08:54:59.272Z,59.48
2018-04-28T08:55:59.253Z,59.96
2018-04-28T08:56:59.251Z,60.15
2018-04-28T08:57:59.243Z,60.82
2018-04-28T08:58:59.221Z,61.02
2018-04-28T08:59:59.224Z,60.72
2018-04-28T09:00:59.193Z,59.86
2018-04-28T09:01:59.179Z,60.70
2018-04-28T09:02:59.196Z,61.11
2018-04-28T09:03:59.159Z,60.05
2018-04-28T09:04:59.150Z,60.18
2018-04-28T09:05:59.144Z,58.58
2018-04-28T09:06:59.132Z,57.88
2018-04-28T09:07:59.133Z,58.84
2018-04-28T09:08:59.102Z,58.36
2018-04-28T09:09:59.102Z,57.33
2018-04-28T09:10:59.080Z,56.78
2018-04-28T09:11:59.067Z,55.94
2018-04-28T09:12:59.134Z,55.27
2018-04-28T09:13:59.102Z,54.08
2018-04-28T09:14:59.041Z,54.12
2018-04-28T09:15:59.021Z,56.92
2018-04-28T09:16:59.008Z,58.52
2018-04-28T09:17:59.016Z,58.74
2018-04-28T09:18:58.995Z,57.26
2018-04-28T09:19:58.972Z,54.75
2018-04-28T09:20:58.970Z,53.91
2018-04-28T09:21:58.953Z,53.21
2018-04-28T09:22:58.942Z,53.19
2018-04-28T09:23:58.947Z,53.64
2018-04-28T09:24:58.932Z,55.79
2018-04-28T09:25:58.939Z,57.52
2018-04-28T09:26:58.916Z,56.62
2018-04-28T09:27:58.893Z,55.40
2018-04-28T09:28:58.880Z,53.96
2018-04-28T09:29:58.863Z,54.12
2018-04-28T09:30:58.887Z,54.43
2018-04-28T09:31:58.848Z,53.86
2018-04-28T09:32:58.845Z,54.09
2018-04-28T09:33:58.826Z,55.82
2018-04-28T09:34:58.817Z,55.22
2018-04-28T09:35:58.815Z,56.76
2018-04-28T09:36:58.817Z,55.91
2018-04-28T09:37:58.799Z,56.27
2018-04-28T09:38:58.782Z,56.95
2018-04-28T09:39:58.808Z,57.43
2018-04-28T09:40:58.779Z,57.46
2018-04-28T09:41:58.791Z,59.67
2018-04-28T09:42:58.767Z,60.15
2018-04-28T09:43:58.729Z,60.82
2018-04-28T09:44:58.796Z,59.74
2018-04-28T09:45:58.712Z,60.41
2018-04-28T09:46:58.720Z,60.70
2018-04-28T09:47:58.713Z,60.05
2018-04-28T09:48:58.683Z,60.15
2018-04-28T09:49:58.674Z,59.96
2018-04-28T09:50:58.660Z,59.86
2018-04-28T09:51:58.647Z,59.19
2018-04-28T09:52:58.657Z,59.29
2018-04-28T09:53:58.631Z,59.48
2018-04-28T09:54:58.652Z,58.23
2018-04-28T09:55:58.606Z,58.04
2018-04-28T09:56:58.603Z,58.71
2018-04-28T09:57:58.589Z,60.44
2018-04-28T09:58:58.674Z,59.67
2018-04-28T09:59:58.573Z,59.77
2018-04-28T10:00:58.589Z,60.44
2018-04-28T10:01:58.549Z,60.63
2018-04-28T10:02:58.539Z,59.77
2018-04-28T10:03:58.542Z,60.15
2018-04-28T10:04:58.522Z,59.96
2018-04-28T10:05:58.539Z,59.77
2018-04-28T10:06:58.510Z,60.63
2018-04-28T10:07:58.494Z,61.40
2018-04-28T10:08:58.490Z,60.92
2018-04-28T10:09:58.471Z,60.82
2018-04-28T10:10:58.453Z,61.02
2018-04-28T10:11:58.453Z,60.15
2018-04-28T10:12:58.430Z,60.47
2018-04-28T10:13:58.420Z,60.57
2018-04-28T10:14:59.188Z,59.89
2018-04-28T10:15:58.397Z,59.41
2018-04-28T10:16:58.401Z,59.48
2018-04-28T10:17:58.391Z,59.67
2018-04-28T10:18:58.364Z,59.96
2018-04-28T10:19:58.356Z,61.02
2018-04-28T10:20:58.342Z,61.02
2018-04-28T10:21:58.370Z,61.21
2018-04-28T10:22:58.347Z,61.69
2018-04-28T10:23:58.314Z,61.02
2018-04-28T10:24:58.307Z,59.99
2018-04-28T10:25:58.291Z,59.99
2018-04-28T10:26:58.299Z,58.74
2018-04-28T10:27:58.289Z,58.74
2018-04-28T10:28:58.262Z,58.64
2018-04-28T10:29:58.246Z,58.96
2018-04-28T10:30:58.242Z,57.33
2018-04-28T10:31:58.223Z,57.11
2018-04-28T10:32:58.250Z,57.62
2018-04-28T10:33:58.207Z,57.30
2018-04-28T10:34:58.200Z,57.71
2018-04-28T10:35:58.185Z,57.14
2018-04-28T10:36:58.185Z,57.78
2018-04-28T10:37:58.161Z,58.26
2018-04-28T10:38:58.174Z,58.84
2018-04-28T10:39:58.164Z,58.84
2018-04-28T10:40:58.142Z,58.67
2018-04-28T10:41:58.127Z,57.29
2018-04-28T10:42:58.118Z,56.81
2018-04-28T10:43:58.124Z,55.34
2018-04-28T10:44:58.094Z,55.12
2018-04-28T10:45:58.107Z,55.57
2018-04-28T10:46:58.078Z,56.92
2018-04-28T10:47:58.073Z,56.44
2018-04-28T10:48:58.056Z,57.01
2018-04-28T10:49:58.049Z,56.98
2018-04-28T10:50:58.063Z,58.23
2018-04-28T10:51:58.041Z,58.91
2018-04-28T10:52:58.022Z,58.14
2018-04-28T10:53:58.073Z,58.42
2018-04-28T10:54:58.005Z,57.46
2018-04-28T10:55:57.989Z,57.75
2018-04-28T10:56:57.998Z,57.75
2018-04-28T10:57:57.983Z,57.21
2018-04-28T10:58:57.960Z,56.92
2018-04-28T10:59:57.947Z,57.88
2018-04-28T11:00:57.953Z,58.77
2018-04-28T11:01:57.948Z,56.95
2018-04-28T11:02:57.913Z,57.01
2018-04-28T11:03:57.918Z,56.44
2018-04-28T11:04:57.894Z,56.82
2018-04-28T11:05:57.885Z,57.11
2018-04-28T11:06:57.878Z,56.85
2018-04-28T11:07:57.881Z,56.46
2018-04-28T11:08:57.848Z,55.99
2018-04-28T11:09:57.843Z,55.89
2018-04-28T11:10:57.836Z,56.27
2018-04-28T11:11:57.822Z,55.76
2018-04-28T11:12:57.827Z,53.76
2018-04-28T11:13:57.796Z,52.06
2018-04-28T11:14:57.803Z,50.73
2018-04-28T11:15:57.796Z,49.99
2018-04-28T11:16:57.771Z,49.43
2018-04-28T11:17:57.762Z,49.89
2018-04-28T11:18:57.772Z,49.10
2018-04-28T11:19:57.829Z,48.79
2018-04-28T11:20:58.719Z,50.01
2018-04-28T11:21:57.739Z,49.89
2018-04-28T11:22:57.725Z,50.46
2018-04-28T11:23:57.736Z,51.23
2018-04-28T11:24:57.707Z,50.44
2018-04-28T11:25:57.700Z,51.31
2018-04-28T11:26:57.692Z,51.76
2018-04-28T11:27:57.692Z,51.37
2018-04-28T11:28:57.671Z,53.27
2018-04-28T11:29:57.681Z,53.49
2018-04-28T11:30:57.654Z,52.62
2018-04-28T11:31:57.717Z,52.17
2018-04-28T11:32:57.654Z,52.46
2018-04-28T11:33:57.629Z,52.97
2018-04-28T11:34:57.640Z,50.59
2018-04-28T11:35:57.611Z,49.29
2018-04-28T11:36:57.628Z,48.57
2018-04-28T11:37:57.600Z,47.22
2018-04-28T11:38:57.587Z,48.33
2018-04-28T11:39:57.595Z,49.17
2018-04-28T11:40:57.564Z,49.79
2018-04-28T11:41:57.584Z,50.37
2018-04-28T11:42:57.556Z,51.02
2018-04-28T11:43:57.545Z,52.36
2018-04-28T11:44:57.551Z,52.46
2018-04-28T11:45:57.524Z,51.59
2018-04-28T11:46:54.352Z,52.26
2018-04-28T11:47:54.380Z,50.01
2018-04-28T11:48:54.320Z,49.91
2018-04-28T11:49:54.320Z,49.89
2018-04-28T11:50:54.319Z,50.46
2018-04-28T11:51:54.289Z,50.85
2018-04-28T11:52:54.297Z,52.22
2018-04-28T11:53:54.292Z,51.57
2018-04-28T11:54:54.266Z,50.42
2018-04-28T11:55:54.265Z,51.67
2018-04-28T11:56:54.265Z,50.61
2018-04-28T11:57:54.239Z,51.55
2018-04-28T11:58:54.252Z,51.93
2018-04-28T11:59:54.222Z,52.99
2018-04-28T12:00:54.229Z,53.06
2018-04-28T12:01:54.215Z,53.06
2018-04-28T12:02:54.195Z,53.90
2018-04-28T12:03:54.185Z,53.70
2018-04-28T12:04:54.181Z,54.00
2018-04-28T12:05:54.182Z,54.83
2018-04-28T12:06:54.173Z,54.57
2018-04-28T12:07:54.168Z,55.02
2018-04-28T12:08:54.140Z,53.68
2018-04-28T12:09:54.131Z,53.56
2018-04-28T12:10:54.119Z,54.90
2018-04-28T12:11:54.112Z,55.77
2018-04-28T12:12:54.102Z,56.92
2018-04-28T12:13:54.117Z,57.01
2018-04-28T12:14:54.081Z,56.05
2018-04-28T12:15:54.069Z,55.29
2018-04-28T12:16:54.059Z,55.38
2018-04-28T12:17:54.050Z,55.77
2018-04-28T12:18:54.034Z,56.92
2018-04-28T12:19:54.046Z,56.66
2018-04-28T12:20:54.076Z,55.69
2018-04-28T12:21:54.008Z,55.51
2018-04-28T12:22:53.996Z,54.57
2018-04-28T12:23:53.995Z,53.23
2018-04-28T12:24:54.004Z,53.80
2018-04-28T12:25:53.959Z,53.92
2018-04-28T12:26:53.949Z,53.64
2018-04-28T12:27:53.956Z,51.74
2018-04-28T12:28:53.932Z,50.59
2018-04-28T12:29:54.051Z,51.14
2018-04-28T12:30:53.909Z,51.69
2018-04-28T12:31:53.904Z,52.17
2018-04-28T12:32:53.888Z,52.75
2018-04-28T12:33:53.883Z,52.36
2018-04-28T12:34:53.869Z,52.48
2018-04-28T12:35:53.886Z,52.03
2018-04-28T12:36:53.851Z,50.49
2018-04-28T12:37:53.850Z,49.41
2018-04-28T12:38:53.830Z,50.18
2018-04-28T12:39:53.821Z,51.91
2018-04-28T12:40:53.826Z,51.53
2018-04-28T12:41:53.805Z,49.22
2018-04-28T12:42:53.808Z,48.93
2018-04-28T12:43:53.785Z,49.12
2018-04-28T12:44:53.772Z,48.66
2018-04-28T12:45:53.765Z,48.33
2018-04-28T12:46:53.751Z,49.07
2018-04-28T12:47:53.760Z,50.51
2018-04-28T12:48:53.747Z,49.65
2018-04-28T12:49:53.733Z,51.40
2018-04-28T12:50:53.710Z,52.17
2018-04-28T12:51:53.720Z,51.40